createdAt,value
2022-12-31T00:00:23.803Z,76.39
2022-12-31T00:05:23.619Z,76.49
2022-12-31T00:10:32.844Z,78.05
2022-12-31T00:15:23.455Z,77.10
2022-12-31T00:22:54.069Z,77.30
2022-12-31T00:29:10.875Z,77.91
2022-12-31T00:34:19.019Z,76.86
2022-12-31T00:39:10.744Z,77.81
2022-12-31T00:44:10.568Z,78.42
2022-12-31T00:49:18.494Z,77.53
2022-12-31T00:55:27.578Z,76.89
2022-12-31T01:00:27.592Z,77.03
2022-12-31T01:05:27.377Z,77.26
2022-12-31T01:10:27.109Z,78.39
2022-12-31T01:15:35.799Z,75.94
2022-12-31T01:20:27.105Z,77.50
2022-12-31T01:25:27.353Z,77.60
2022-12-31T01:32:02.235Z,77.53
2022-12-31T01:37:02.858Z,78.31
2022-12-31T01:44:14.417Z,78.25
2022-12-31T01:49:14.902Z,77.47
2022-12-31T01:54:14.175Z,79.77
2022-12-31T01:59:14.243Z,79.13
2022-12-31T02:04:14.739Z,79.23
2022-12-31T02:09:14.561Z,78.48
2022-12-31T02:14:14.644Z,78.38
2022-12-31T02:19:13.739Z,77.94
2022-12-31T02:24:19.828Z,78.78
2022-12-31T02:29:13.608Z,79.09
2022-12-31T02:34:16.568Z,78.14
2022-12-31T02:39:13.428Z,79.05
2022-12-31T02:44:13.481Z,79.39
2022-12-31T02:51:44.035Z,77.36
2022-12-31T02:58:07.480Z,76.71
2022-12-31T03:03:13.769Z,76.81
2022-12-31T03:08:07.093Z,77.22
2022-12-31T03:13:07.305Z,77.56
2022-12-31T03:18:07.155Z,77.93
2022-12-31T03:23:06.992Z,78.64
2022-12-31T03:28:08.293Z,77.48
2022-12-31T03:33:06.689Z,78.13
2022-12-31T03:41:43.464Z,77.59
2022-12-31T03:46:39.771Z,78.84
2022-12-31T03:51:37.337Z,77.25
2022-12-31T03:56:37.354Z,76.40
2022-12-31T04:01:39.142Z,77.69
2022-12-31T04:09:12.340Z,79.25
2022-12-31T04:14:21.321Z,77.65
2022-12-31T04:19:13.953Z,77.45
2022-12-31T04:29:55.070Z,77.86
2022-12-31T04:36:44.041Z,76.56
2022-12-31T04:41:43.924Z,76.67
2022-12-31T04:46:43.776Z,76.26
2022-12-31T04:51:43.787Z,76.67
2022-12-31T04:56:43.900Z,74.57
2022-12-31T05:01:43.583Z,75.42
2022-12-31T05:06:43.414Z,74.67
2022-12-31T05:11:46.546Z,74.57
2022-12-31T05:16:43.403Z,74.67
2022-12-31T05:21:43.253Z,73.72
2022-12-31T05:26:46.215Z,72.58
2022-12-31T05:31:43.286Z,74.47
2022-12-31T05:36:43.222Z,72.88
2022-12-31T05:41:42.915Z,72.88
2022-12-31T05:46:42.991Z,71.94
2022-12-31T05:52:03.875Z,73.28
2022-12-31T05:56:44.249Z,72.64
2022-12-31T06:01:42.708Z,72.78
2022-12-31T06:06:42.555Z,72.44
2022-12-31T06:11:42.608Z,72.99
2022-12-31T06:16:49.996Z,73.05
2022-12-31T06:22:55.526Z,71.50
2022-12-31T06:27:54.468Z,71.40
2022-12-31T06:32:54.471Z,72.14
2022-12-31T06:37:54.092Z,72.34
2022-12-31T06:42:59.730Z,72.04
2022-12-31T06:47:55.199Z,70.36
2022-12-31T06:52:55.677Z,71.80
2022-12-31T06:57:54.056Z,70.12
2022-12-31T07:02:53.818Z,69.79
2022-12-31T07:07:53.847Z,71.37
2022-12-31T07:12:56.734Z,71.37
2022-12-31T07:17:53.764Z,71.91
2022-12-31T07:22:53.678Z,71.47
2022-12-31T07:29:07.750Z,70.42
2022-12-31T07:34:07.487Z,70.02
2022-12-31T07:39:07.515Z,69.59
2022-12-31T07:44:07.460Z,69.38
2022-12-31T07:50:25.621Z,69.28
2022-12-31T07:56:41.452Z,69.08
2022-12-31T08:01:41.511Z,69.38
2022-12-31T08:06:41.210Z,70.32
2022-12-31T08:11:41.055Z,68.24
2022-12-31T08:16:41.048Z,68.11
2022-12-31T08:21:41.017Z,68.11
2022-12-31T08:26:40.950Z,68.85
2022-12-31T08:31:48.247Z,68.91
2022-12-31T08:36:48.051Z,67.34
2022-12-31T08:41:43.147Z,68.51
2022-12-31T08:48:12.295Z,68.41
2022-12-31T08:54:51.292Z,68.31
2022-12-31T09:01:08.207Z,69.25
2022-12-31T09:06:15.533Z,68.71
2022-12-31T09:11:07.910Z,68.08
2022-12-31T09:16:15.626Z,67.34
2022-12-31T09:21:07.662Z,68.41
2022-12-31T09:26:07.641Z,68.38
2022-12-31T09:31:07.677Z,68.08
2022-12-31T09:36:14.206Z,67.64
2022-12-31T09:41:07.373Z,67.77
2022-12-31T09:46:07.706Z,66.91
2022-12-31T09:51:10.553Z,66.60
2022-12-31T09:56:15.182Z,68.04
2022-12-31T10:01:07.267Z,66.60
2022-12-31T10:06:07.264Z,67.47
2022-12-31T10:11:07.235Z,67.00
2022-12-31T10:16:06.996Z,65.56
2022-12-31T10:21:06.840Z,66.00
2022-12-31T10:26:07.172Z,65.03
2022-12-31T10:31:06.831Z,64.73
2022-12-31T10:36:06.681Z,65.33
2022-12-31T10:41:06.662Z,65.87
2022-12-31T10:46:06.577Z,65.03
2022-12-31T10:51:09.578Z,65.64
2022-12-31T10:56:06.480Z,67.03
2022-12-31T11:01:06.560Z,65.44
2022-12-31T11:06:06.405Z,65.03
2022-12-31T11:11:06.345Z,65.03
2022-12-31T11:16:06.132Z,64.73
2022-12-31T11:21:06.064Z,64.00
2022-12-31T11:26:06.062Z,65.77
2022-12-31T11:31:06.107Z,64.10
2022-12-31T11:36:05.907Z,63.56
2022-12-31T11:41:05.843Z,64.93
2022-12-31T11:46:13.701Z,63.26
2022-12-31T11:51:08.654Z,64.10
2022-12-31T11:56:05.726Z,65.13
2022-12-31T12:01:05.698Z,64.40
2022-12-31T12:06:05.605Z,64.20
2022-12-31T12:11:05.544Z,64.10
2022-12-31T12:16:05.398Z,63.87
2022-12-31T12:21:05.224Z,64.80
2022-12-31T12:26:05.471Z,63.46
2022-12-31T12:31:05.287Z,63.23
2022-12-31T12:36:12.570Z,61.77
2022-12-31T12:41:12.831Z,61.64
2022-12-31T12:46:04.967Z,61.36
2022-12-31T12:51:14.924Z,62.17
2022-12-31T12:56:05.066Z,63.36
2022-12-31T13:01:04.908Z,63.26
2022-12-31T13:06:12.798Z,62.70
2022-12-31T13:11:11.730Z,61.67
2022-12-31T13:16:12.281Z,61.70
2022-12-31T13:21:04.568Z,63.90
2022-12-31T13:26:04.366Z,63.26
2022-12-31T13:31:07.043Z,63.59
2022-12-31T13:36:04.368Z,63.49
2022-12-31T13:41:04.349Z,63.29
2022-12-31T13:46:04.235Z,63.59
2022-12-31T13:51:07.622Z,63.56
2022-12-31T13:56:04.338Z,64.23
2022-12-31T14:02:22.483Z,62.33
2022-12-31T14:07:22.066Z,64.13
2022-12-31T14:12:21.775Z,64.23
2022-12-31T14:17:22.474Z,63.29
2022-12-31T14:22:22.590Z,63.70
2022-12-31T14:27:30.375Z,63.79
2022-12-31T14:32:21.592Z,64.99
2022-12-31T14:37:25.764Z,62.99
2022-12-31T14:48:07.251Z,64.36
2022-12-31T14:59:27.428Z,65.33
2022-12-31T15:04:26.271Z,65.73
2022-12-31T15:11:43.671Z,64.49
2022-12-31T15:16:45.921Z,65.12
2022-12-31T15:25:43.560Z,65.53
2022-12-31T15:30:36.500Z,65.66
2022-12-31T15:35:36.415Z,65.33
2022-12-31T15:40:39.346Z,66.47
2022-12-31T15:45:36.420Z,65.76
2022-12-31T15:50:36.298Z,65.89
2022-12-31T15:55:37.828Z,67.00
2022-12-31T16:00:36.116Z,65.46
2022-12-31T16:05:37.682Z,65.36
2022-12-31T16:10:35.902Z,65.56
2022-12-31T16:15:38.969Z,66.39
2022-12-31T16:20:35.857Z,66.39
2022-12-31T16:25:35.792Z,66.09
2022-12-31T16:30:35.808Z,66.73
2022-12-31T16:35:35.894Z,65.96
2022-12-31T16:40:35.682Z,65.89
2022-12-31T16:45:43.508Z,65.56
2022-12-31T16:50:38.730Z,65.82
2022-12-31T16:55:35.417Z,64.78
2022-12-31T17:00:35.417Z,64.15
2022-12-31T17:05:35.402Z,63.65
2022-12-31T17:10:42.695Z,63.95
2022-12-31T17:15:38.210Z,64.89
2022-12-31T17:20:35.111Z,64.58
2022-12-31T17:25:35.064Z,63.87
2022-12-31T17:30:42.904Z,61.90
2022-12-31T17:35:42.440Z,61.07
2022-12-31T17:40:50.916Z,63.67
2022-12-31T17:45:35.664Z,62.77
2022-12-31T17:50:34.587Z,62.24
2022-12-31T17:55:34.539Z,62.66
2022-12-31T18:00:34.626Z,61.96
2022-12-31T18:05:34.629Z,62.04
2022-12-31T18:10:34.583Z,62.57
2022-12-31T18:15:37.593Z,62.57
2022-12-31T18:20:34.354Z,63.00
2022-12-31T18:25:34.328Z,61.76
2022-12-31T18:30:34.320Z,62.37
2022-12-31T18:36:07.118Z,62.16
2022-12-31T18:40:35.138Z,61.93
2022-12-31T18:45:34.218Z,61.43
2022-12-31T18:50:33.815Z,61.56
2022-12-31T18:55:33.803Z,60.39
2022-12-31T19:00:33.763Z,60.72
2022-12-31T19:05:34.047Z,60.42
2022-12-31T19:10:33.602Z,60.83
2022-12-31T19:15:36.515Z,60.72
2022-12-31T19:20:33.503Z,60.96
2022-12-31T19:25:33.507Z,60.75
2022-12-31T19:30:40.764Z,58.86
2022-12-31T19:35:33.273Z,60.63
2022-12-31T19:40:33.350Z,59.28
2022-12-31T19:45:33.203Z,59.42
2022-12-31T19:50:33.137Z,59.72
2022-12-31T19:55:41.073Z,57.42
2022-12-31T20:00:32.869Z,58.81
2022-12-31T20:05:32.954Z,58.38
2022-12-31T20:10:32.732Z,59.34
2022-12-31T20:15:35.958Z,59.11
2022-12-31T20:20:32.865Z,59.64
2022-12-31T20:25:32.602Z,58.48
2022-12-31T20:30:32.761Z,57.37
2022-12-31T20:35:32.641Z,57.17
2022-12-31T20:40:32.403Z,56.37
2022-12-31T20:45:32.497Z,56.80
2022-12-31T20:50:32.518Z,56.29
2022-12-31T20:55:32.331Z,56.52
2022-12-31T21:00:32.124Z,55.69
2022-12-31T21:05:32.333Z,55.59
2022-12-31T21:10:32.003Z,55.31
2022-12-31T21:15:34.961Z,54.79
2022-12-31T21:21:49.568Z,54.18
2022-12-31T21:28:07.312Z,52.54
2022-12-31T21:33:15.124Z,52.74
2022-12-31T21:38:07.216Z,53.58
2022-12-31T21:43:07.039Z,54.38
2022-12-31T21:48:07.183Z,53.98
2022-12-31T21:53:18.774Z,53.25
2022-12-31T22:03:08.004Z,53.67
2022-12-31T22:08:07.359Z,53.38
2022-12-31T22:13:09.123Z,53.47
2022-12-31T22:18:09.619Z,53.47
2022-12-31T22:23:06.555Z,53.70
2022-12-31T22:34:17.715Z,52.84
2022-12-31T22:39:43.441Z,53.27
2022-12-31T22:44:18.627Z,53.09
2022-12-31T22:49:17.432Z,52.80
2022-12-31T22:54:18.629Z,52.09
2022-12-31T22:59:17.352Z,52.49
2022-12-31T23:04:17.257Z,52.19
2022-12-31T23:09:17.134Z,52.26
2022-12-31T23:14:17.084Z,51.76
2022-12-31T23:19:16.948Z,52.69
2022-12-31T23:24:26.102Z,53.30
2022-12-31T23:29:18.048Z,53.00
2022-12-31T23:34:16.851Z,53.70
2022-12-31T23:39:16.782Z,53.09
2022-12-31T23:44:16.729Z,54.23
2022-12-31T23:49:16.639Z,53.30
2022-12-31T23:54:18.135Z,53.70
2022-12-31T23:59:16.654Z,54.30
